sensor_id;sensor_type;location;lat;lon;timestamp;P1;durP1;ratioP1;P2;durP2;ratioP2
49101;SDS011;34913;47.520;19.186;2023-04-19T00:02:14;3.75;;;2.60;;
49101;SDS011;34913;47.520;19.186;2023-04-19T00:04:40;4.18;;;2.60;;
49101;SDS011;34913;47.520;19.186;2023-04-19T00:07:06;3.80;;;2.60;;
49101;SDS011;34913;47.520;19.186;2023-04-19T00:09:31;4.05;;;2.88;;
49101;SDS011;34913;47.520;19.186;2023-04-19T00:11:57;3.42;;;2.65;;
49101;SDS011;34913;47.520;19.186;2023-04-19T00:14:22;4.88;;;2.40;;
49101;SDS011;34913;47.520;19.186;2023-04-19T00:16:47;5.30;;;3.00;;
49101;SDS011;34913;47.520;19.186;2023-04-19T00:19:13;4.28;;;2.30;;
49101;SDS011;34913;47.520;19.186;2023-04-19T00:21:38;4.78;;;2.72;;
49101;SDS011;34913;47.520;19.186;2023-04-19T00:24:04;3.20;;;2.50;;
49101;SDS011;34913;47.520;19.186;2023-04-19T00:26:29;4.05;;;2.67;;
49101;SDS011;34913;47.520;19.186;2023-04-19T00:28:55;3.25;;;2.58;;
49101;SDS011;34913;47.520;19.186;2023-04-19T00:31:20;5.45;;;2.50;;
49101;SDS011;34913;47.520;19.186;2023-04-19T00:33:46;4.57;;;2.50;;
49101;SDS011;34913;47.520;19.186;2023-04-19T00:36:11;4.78;;;2.53;;
49101;SDS011;34913;47.520;19.186;2023-04-19T00:38:37;5.70;;;3.00;;
49101;SDS011;34913;47.520;19.186;2023-04-19T00:41:02;3.13;;;2.58;;
49101;SDS011;34913;47.520;19.186;2023-04-19T00:43:27;3.55;;;2.70;;
49101;SDS011;34913;47.520;19.186;2023-04-19T00:45:53;5.65;;;2.88;;
49101;SDS011;34913;47.520;19.186;2023-04-19T00:48:18;3.60;;;2.70;;
49101;SDS011;34913;47.520;19.186;2023-04-19T00:50:44;8.85;;;2.97;;
49101;SDS011;34913;47.520;19.186;2023-04-19T00:53:10;5.57;;;2.63;;
49101;SDS011;34913;47.520;19.186;2023-04-19T00:55:37;4.15;;;2.55;;
49101;SDS011;34913;47.520;19.186;2023-04-19T00:58:04;4.45;;;2.90;;
49101;SDS011;34913;47.520;19.186;2023-04-19T01:00:31;5.05;;;2.80;;
49101;SDS011;34913;47.520;19.186;2023-04-19T01:02:56;3.75;;;2.60;;
49101;SDS011;34913;47.520;19.186;2023-04-19T01:05:22;4.70;;;2.78;;
49101;SDS011;34913;47.520;19.186;2023-04-19T01:07:48;4.60;;;2.70;;
49101;SDS011;34913;47.520;19.186;2023-04-19T01:10:13;3.58;;;2.55;;
49101;SDS011;34913;47.520;19.186;2023-04-19T01:12:39;4.00;;;2.65;;
49101;SDS011;34913;47.520;19.186;2023-04-19T01:15:05;4.03;;;2.63;;
49101;SDS011;34913;47.520;19.186;2023-04-19T01:17:31;3.05;;;2.70;;
49101;SDS011;34913;47.520;19.186;2023-04-19T01:20:00;3.70;;;2.63;;
49101;SDS011;34913;47.520;19.186;2023-04-19T01:22:33;5.57;;;2.78;;
49101;SDS011;34913;47.520;19.186;2023-04-19T01:25:01;4.28;;;2.78;;
49101;SDS011;34913;47.520;19.186;2023-04-19T01:27:28;3.58;;;2.65;;
49101;SDS011;34913;47.520;19.186;2023-04-19T01:29:53;3.38;;;2.60;;
49101;SDS011;34913;47.520;19.186;2023-04-19T01:32:19;4.72;;;2.90;;
49101;SDS011;34913;47.520;19.186;2023-04-19T01:34:44;3.72;;;2.70;;
49101;SDS011;34913;47.520;19.186;2023-04-19T01:37:11;3.50;;;2.53;;
49101;SDS011;34913;47.520;19.186;2023-04-19T01:39:36;5.53;;;2.78;;
49101;SDS011;34913;47.520;19.186;2023-04-19T01:42:02;4.22;;;2.97;;
49101;SDS011;34913;47.520;19.186;2023-04-19T01:44:28;4.75;;;3.00;;
49101;SDS011;34913;47.520;19.186;2023-04-19T01:46:54;3.65;;;2.70;;
49101;SDS011;34913;47.520;19.186;2023-04-19T01:49:20;4.30;;;2.78;;
49101;SDS011;34913;47.520;19.186;2023-04-19T01:51:45;3.45;;;2.60;;
49101;SDS011;34913;47.520;19.186;2023-04-19T01:54:11;3.65;;;2.63;;
49101;SDS011;34913;47.520;19.186;2023-04-19T01:56:36;4.38;;;2.63;;
49101;SDS011;34913;47.520;19.186;2023-04-19T01:59:01;6.63;;;2.70;;
49101;SDS011;34913;47.520;19.186;2023-04-19T02:01:28;5.05;;;2.70;;
49101;SDS011;34913;47.520;19.186;2023-04-19T02:03:53;4.45;;;2.83;;
49101;SDS011;34913;47.520;19.186;2023-04-19T02:06:19;4.65;;;2.83;;
49101;SDS011;34913;47.520;19.186;2023-04-19T02:08:44;4.97;;;2.85;;
49101;SDS011;34913;47.520;19.186;2023-04-19T02:11:11;4.75;;;2.90;;
49101;SDS011;34913;47.520;19.186;2023-04-19T02:13:40;3.90;;;2.60;;
49101;SDS011;34913;47.520;19.186;2023-04-19T02:16:06;7.30;;;3.00;;
49101;SDS011;34913;47.520;19.186;2023-04-19T02:18:32;3.88;;;2.70;;
49101;SDS011;34913;47.520;19.186;2023-04-19T02:21:02;7.03;;;2.88;;
49101;SDS011;34913;47.520;19.186;2023-04-19T02:23:29;7.40;;;3.20;;
49101;SDS011;34913;47.520;19.186;2023-04-19T02:25:54;3.97;;;2.80;;
49101;SDS011;34913;47.520;19.186;2023-04-19T02:28:20;6.82;;;3.00;;
49101;SDS011;34913;47.520;19.186;2023-04-19T02:30:45;3.90;;;2.75;;
49101;SDS011;34913;47.520;19.186;2023-04-19T02:33:11;5.28;;;3.22;;
49101;SDS011;34913;47.520;19.186;2023-04-19T02:35:37;3.88;;;2.92;;
49101;SDS011;34913;47.520;19.186;2023-04-19T02:38:03;3.78;;;3.03;;
49101;SDS011;34913;47.520;19.186;2023-04-19T02:40:28;6.10;;;3.20;;
49101;SDS011;34913;47.520;19.186;2023-04-19T02:42:54;5.22;;;3.10;;
49101;SDS011;34913;47.520;19.186;2023-04-19T02:45:20;4.32;;;3.08;;
49101;SDS011;34913;47.520;19.186;2023-04-19T02:47:45;5.18;;;2.83;;
49101;SDS011;34913;47.520;19.186;2023-04-19T02:50:11;4.18;;;2.90;;
49101;SDS011;34913;47.520;19.186;2023-04-19T02:52:37;5.40;;;3.10;;
49101;SDS011;34913;47.520;19.186;2023-04-19T02:55:03;5.43;;;3.10;;
49101;SDS011;34913;47.520;19.186;2023-04-19T02:57:30;4.53;;;3.05;;
49101;SDS011;34913;47.520;19.186;2023-04-19T02:59:56;5.28;;;2.80;;
49101;SDS011;34913;47.520;19.186;2023-04-19T03:02:21;6.93;;;2.88;;
49101;SDS011;34913;47.520;19.186;2023-04-19T03:04:47;4.43;;;3.10;;
49101;SDS011;34913;47.520;19.186;2023-04-19T03:07:12;5.60;;;2.92;;
49101;SDS011;34913;47.520;19.186;2023-04-19T03:09:38;4.00;;;2.90;;
49101;SDS011;34913;47.520;19.186;2023-04-19T03:12:04;5.80;;;3.00;;
49101;SDS011;34913;47.520;19.186;2023-04-19T03:14:31;4.72;;;3.20;;
49101;SDS011;34913;47.520;19.186;2023-04-19T03:16:58;4.07;;;2.90;;
49101;SDS011;34913;47.520;19.186;2023-04-19T03:19:23;4.93;;;3.00;;
49101;SDS011;34913;47.520;19.186;2023-04-19T03:21:49;4.45;;;2.95;;
49101;SDS011;34913;47.520;19.186;2023-04-19T03:24:14;3.78;;;3.22;;
49101;SDS011;34913;47.520;19.186;2023-04-19T03:26:40;5.75;;;3.17;;
49101;SDS011;34913;47.520;19.186;2023-04-19T03:29:05;6.43;;;3.50;;
49101;SDS011;34913;47.520;19.186;2023-04-19T03:31:31;5.70;;;3.33;;
49101;SDS011;34913;47.520;19.186;2023-04-19T03:33:56;5.97;;;3.17;;
49101;SDS011;34913;47.520;19.186;2023-04-19T03:36:22;6.22;;;3.20;;
49101;SDS011;34913;47.520;19.186;2023-04-19T03:38:47;4.45;;;2.97;;
49101;SDS011;34913;47.520;19.186;2023-04-19T03:43:48;3.75;;;3.10;;
49101;SDS011;34913;47.520;19.186;2023-04-19T03:46:14;4.75;;;3.05;;
49101;SDS011;34913;47.520;19.186;2023-04-19T03:48:39;4.13;;;2.90;;
49101;SDS011;34913;47.520;19.186;2023-04-19T03:51:04;7.35;;;2.90;;
49101;SDS011;34913;47.520;19.186;2023-04-19T03:53:30;7.57;;;2.90;;
49101;SDS011;34913;47.520;19.186;2023-04-19T03:55:55;4.30;;;2.83;;
49101;SDS011;34913;47.520;19.186;2023-04-19T03:58:21;4.10;;;2.67;;
49101;SDS011;34913;47.520;19.186;2023-04-19T04:00:46;4.70;;;2.95;;
49101;SDS011;34913;47.520;19.186;2023-04-19T04:03:12;6.72;;;3.10;;
49101;SDS011;34913;47.520;19.186;2023-04-19T04:05:37;6.03;;;2.97;;
49101;SDS011;34913;47.520;19.186;2023-04-19T04:08:03;3.65;;;2.50;;
49101;SDS011;34913;47.520;19.186;2023-04-19T04:10:28;6.68;;;3.00;;
49101;SDS011;34913;47.520;19.186;2023-04-19T04:12:54;6.07;;;3.03;;
49101;SDS011;34913;47.520;19.186;2023-04-19T04:15:19;4.13;;;3.00;;
49101;SDS011;34913;47.520;19.186;2023-04-19T04:17:45;4.47;;;2.90;;
49101;SDS011;34913;47.520;19.186;2023-04-19T04:20:10;4.53;;;2.75;;
49101;SDS011;34913;47.520;19.186;2023-04-19T04:22:43;7.95;;;2.65;;
49101;SDS011;34913;47.520;19.186;2023-04-19T04:25:12;5.32;;;2.80;;
49101;SDS011;34913;47.520;19.186;2023-04-19T04:27:40;9.98;;;3.08;;
49101;SDS011;34913;47.520;19.186;2023-04-19T04:30:09;5.15;;;2.78;;
49101;SDS011;34913;47.520;19.186;2023-04-19T04:32:35;5.97;;;3.13;;
49101;SDS011;34913;47.520;19.186;2023-04-19T04:35:02;5.63;;;3.10;;
49101;SDS011;34913;47.520;19.186;2023-04-19T04:37:31;4.80;;;3.33;;
49101;SDS011;34913;47.520;19.186;2023-04-19T04:40:00;7.15;;;3.38;;
49101;SDS011;34913;47.520;19.186;2023-04-19T04:42:26;4.50;;;3.30;;
49101;SDS011;34913;47.520;19.186;2023-04-19T04:44:52;5.70;;;3.20;;
49101;SDS011;34913;47.520;19.186;2023-04-19T04:47:19;5.30;;;3.47;;
49101;SDS011;34913;47.520;19.186;2023-04-19T04:49:45;5.55;;;3.33;;
49101;SDS011;34913;47.520;19.186;2023-04-19T04:52:10;7.03;;;3.80;;
49101;SDS011;34913;47.520;19.186;2023-04-19T04:54:36;5.78;;;3.75;;
49101;SDS011;34913;47.520;19.186;2023-04-19T04:57:01;7.35;;;4.55;;
49101;SDS011;34913;47.520;19.186;2023-04-19T04:59:27;5.93;;;3.53;;
49101;SDS011;34913;47.520;19.186;2023-04-19T05:01:53;5.10;;;3.53;;
49101;SDS011;34913;47.520;19.186;2023-04-19T05:04:18;6.07;;;3.80;;
49101;SDS011;34913;47.520;19.186;2023-04-19T05:06:44;9.43;;;3.67;;
49101;SDS011;34913;47.520;19.186;2023-04-19T05:09:09;5.07;;;3.42;;
49101;SDS011;34913;47.520;19.186;2023-04-19T05:11:35;7.78;;;3.70;;
49101;SDS011;34913;47.520;19.186;2023-04-19T05:14:01;7.95;;;3.83;;
49101;SDS011;34913;47.520;19.186;2023-04-19T05:16:27;7.45;;;3.83;;
49101;SDS011;34913;47.520;19.186;2023-04-19T05:18:53;6.82;;;3.70;;
49101;SDS011;34913;47.520;19.186;2023-04-19T05:21:18;8.70;;;3.60;;
49101;SDS011;34913;47.520;19.186;2023-04-19T05:23:44;7.72;;;4.00;;
49101;SDS011;34913;47.520;19.186;2023-04-19T05:26:10;6.15;;;3.40;;
49101;SDS011;34913;47.520;19.186;2023-04-19T05:28:37;11.27;;;3.35;;
49101;SDS011;34913;47.520;19.186;2023-04-19T05:31:03;7.85;;;3.60;;
49101;SDS011;34913;47.520;19.186;2023-04-19T05:33:28;9.05;;;3.40;;
49101;SDS011;34913;47.520;19.186;2023-04-19T05:35:54;6.60;;;3.30;;
49101;SDS011;34913;47.520;19.186;2023-04-19T05:38:19;4.95;;;3.42;;
49101;SDS011;34913;47.520;19.186;2023-04-19T05:40:45;5.25;;;3.50;;
49101;SDS011;34913;47.520;19.186;2023-04-19T05:43:10;8.77;;;3.53;;
49101;SDS011;34913;47.520;19.186;2023-04-19T05:45:36;5.00;;;3.20;;
49101;SDS011;34913;47.520;19.186;2023-04-19T05:48:01;4.63;;;3.20;;
49101;SDS011;34913;47.520;19.186;2023-04-19T05:50:27;7.82;;;3.40;;
49101;SDS011;34913;47.520;19.186;2023-04-19T05:52:52;7.20;;;3.58;;
49101;SDS011;34913;47.520;19.186;2023-04-19T05:55:17;6.68;;;3.83;;
49101;SDS011;34913;47.520;19.186;2023-04-19T05:57:43;5.00;;;3.35;;
49101;SDS011;34913;47.520;19.186;2023-04-19T06:00:09;4.60;;;3.50;;
49101;SDS011;34913;47.520;19.186;2023-04-19T06:02:35;5.43;;;2.70;;
49101;SDS011;34913;47.520;19.186;2023-04-19T06:05:01;4.82;;;3.10;;
49101;SDS011;34913;47.520;19.186;2023-04-19T06:07:28;5.47;;;3.10;;
49101;SDS011;34913;47.520;19.186;2023-04-19T06:09:54;5.78;;;3.17;;
49101;SDS011;34913;47.520;19.186;2023-04-19T06:12:20;9.43;;;3.50;;
49101;SDS011;34913;47.520;19.186;2023-04-19T06:14:46;4.28;;;3.00;;
49101;SDS011;34913;47.520;19.186;2023-04-19T06:17:11;4.10;;;3.28;;
49101;SDS011;34913;47.520;19.186;2023-04-19T06:19:36;7.00;;;3.28;;
49101;SDS011;34913;47.520;19.186;2023-04-19T06:22:03;5.43;;;3.70;;
49101;SDS011;34913;47.520;19.186;2023-04-19T06:24:28;8.10;;;3.22;;
49101;SDS011;34913;47.520;19.186;2023-04-19T06:26:54;8.23;;;3.67;;
49101;SDS011;34913;47.520;19.186;2023-04-19T06:29:19;6.55;;;3.72;;
49101;SDS011;34913;47.520;19.186;2023-04-19T06:31:46;4.72;;;3.53;;
49101;SDS011;34913;47.520;19.186;2023-04-19T06:34:11;5.68;;;4.03;;
49101;SDS011;34913;47.520;19.186;2023-04-19T06:36:37;9.23;;;4.38;;
49101;SDS011;34913;47.520;19.186;2023-04-19T06:39:02;8.90;;;4.90;;
49101;SDS011;34913;47.520;19.186;2023-04-19T06:41:28;6.57;;;4.57;;
49101;SDS011;34913;47.520;19.186;2023-04-19T06:43:53;7.47;;;3.92;;
49101;SDS011;34913;47.520;19.186;2023-04-19T06:46:19;9.40;;;4.65;;
49101;SDS011;34913;47.520;19.186;2023-04-19T06:48:44;8.82;;;4.07;;
49101;SDS011;34913;47.520;19.186;2023-04-19T06:51:10;7.10;;;4.45;;
49101;SDS011;34913;47.520;19.186;2023-04-19T06:53:35;7.93;;;4.10;;
49101;SDS011;34913;47.520;19.186;2023-04-19T06:56:02;6.80;;;3.78;;
49101;SDS011;34913;47.520;19.186;2023-04-19T06:58:29;6.18;;;3.75;;
49101;SDS011;34913;47.520;19.186;2023-04-19T07:00:56;7.97;;;3.50;;
49101;SDS011;34913;47.520;19.186;2023-04-19T07:03:22;8.85;;;3.63;;
49101;SDS011;34913;47.520;19.186;2023-04-19T07:05:47;8.05;;;3.60;;
49101;SDS011;34913;47.520;19.186;2023-04-19T07:08:13;9.70;;;4.18;;
49101;SDS011;34913;47.520;19.186;2023-04-19T07:10:39;5.03;;;3.28;;
49101;SDS011;34913;47.520;19.186;2023-04-19T07:13:04;5.55;;;3.70;;
49101;SDS011;34913;47.520;19.186;2023-04-19T07:15:30;6.63;;;3.25;;
49101;SDS011;34913;47.520;19.186;2023-04-19T07:17:55;5.43;;;3.20;;
49101;SDS011;34913;47.520;19.186;2023-04-19T07:20:20;8.15;;;3.30;;
49101;SDS011;34913;47.520;19.186;2023-04-19T07:22:46;5.38;;;3.22;;
49101;SDS011;34913;47.520;19.186;2023-04-19T07:25:12;7.80;;;3.42;;
49101;SDS011;34913;47.520;19.186;2023-04-19T07:27:38;4.25;;;2.85;;
49101;SDS011;34913;47.520;19.186;2023-04-19T07:30:04;7.43;;;3.30;;
49101;SDS011;34913;47.520;19.186;2023-04-19T07:32:30;5.00;;;3.17;;
49101;SDS011;34913;47.520;19.186;2023-04-19T07:34:55;8.35;;;6.43;;
49101;SDS011;34913;47.520;19.186;2023-04-19T07:37:21;14.25;;;9.55;;
49101;SDS011;34913;47.520;19.186;2023-04-19T07:39:46;4.13;;;2.28;;
49101;SDS011;34913;47.520;19.186;2023-04-19T07:42:12;3.95;;;2.50;;
49101;SDS011;34913;47.520;19.186;2023-04-19T07:44:37;5.60;;;2.45;;
49101;SDS011;34913;47.520;19.186;2023-04-19T07:47:03;4.22;;;2.65;;
49101;SDS011;34913;47.520;19.186;2023-04-19T07:49:30;2.47;;;2.10;;
49101;SDS011;34913;47.520;19.186;2023-04-19T07:51:58;3.78;;;2.10;;
49101;SDS011;34913;47.520;19.186;2023-04-19T07:54:27;2.65;;;2.10;;
49101;SDS011;34913;47.520;19.186;2023-04-19T07:56:53;4.05;;;2.20;;
49101;SDS011;34913;47.520;19.186;2023-04-19T07:59:18;4.68;;;2.38;;
49101;SDS011;34913;47.520;19.186;2023-04-19T08:01:44;4.25;;;2.30;;
49101;SDS011;34913;47.520;19.186;2023-04-19T08:04:09;3.53;;;1.95;;
49101;SDS011;34913;47.520;19.186;2023-04-19T08:06:35;4.32;;;2.35;;
49101;SDS011;34913;47.520;19.186;2023-04-19T08:09:02;4.22;;;1.80;;
49101;SDS011;34913;47.520;19.186;2023-04-19T08:11:28;4.68;;;2.03;;
49101;SDS011;34913;47.520;19.186;2023-04-19T08:13:53;3.35;;;1.90;;
49101;SDS011;34913;47.520;19.186;2023-04-19T08:16:19;3.22;;;1.90;;
49101;SDS011;34913;47.520;19.186;2023-04-19T08:18:44;3.88;;;2.13;;
49101;SDS011;34913;47.520;19.186;2023-04-19T08:21:10;3.38;;;1.80;;
49101;SDS011;34913;47.520;19.186;2023-04-19T08:23:36;2.83;;;1.80;;
49101;SDS011;34913;47.520;19.186;2023-04-19T08:26:01;6.38;;;2.10;;
49101;SDS011;34913;47.520;19.186;2023-04-19T08:28:27;5.43;;;2.38;;
49101;SDS011;34913;47.520;19.186;2023-04-19T08:30:53;2.92;;;1.85;;
49101;SDS011;34913;47.520;19.186;2023-04-19T08:33:19;5.95;;;2.45;;
49101;SDS011;34913;47.520;19.186;2023-04-19T08:35:44;4.97;;;2.60;;
49101;SDS011;34913;47.520;19.186;2023-04-19T08:38:10;6.68;;;2.45;;
49101;SDS011;34913;47.520;19.186;2023-04-19T08:40:37;5.57;;;2.90;;
49101;SDS011;34913;47.520;19.186;2023-04-19T08:43:11;5.38;;;2.85;;
49101;SDS011;34913;47.520;19.186;2023-04-19T08:45:37;4.00;;;2.88;;
49101;SDS011;34913;47.520;19.186;2023-04-19T08:48:03;5.57;;;2.88;;
49101;SDS011;34913;47.520;19.186;2023-04-19T08:50:30;5.82;;;2.67;;
49101;SDS011;34913;47.520;19.186;2023-04-19T08:52:57;4.22;;;2.90;;
49101;SDS011;34913;47.520;19.186;2023-04-19T08:55:24;8.20;;;2.60;;
49101;SDS011;34913;47.520;19.186;2023-04-19T08:57:51;5.30;;;2.78;;
49101;SDS011;34913;47.520;19.186;2023-04-19T09:00:17;4.97;;;2.40;;
49101;SDS011;34913;47.520;19.186;2023-04-19T09:02:46;5.20;;;2.30;;
49101;SDS011;34913;47.520;19.186;2023-04-19T09:05:13;4.45;;;2.08;;
49101;SDS011;34913;47.520;19.186;2023-04-19T09:07:39;4.75;;;2.20;;
49101;SDS011;34913;47.520;19.186;2023-04-19T09:10:07;5.75;;;2.45;;
49101;SDS011;34913;47.520;19.186;2023-04-19T09:12:36;4.43;;;2.20;;
49101;SDS011;34913;47.520;19.186;2023-04-19T09:15:04;2.65;;;2.10;;
49101;SDS011;34913;47.520;19.186;2023-04-19T09:17:32;2.95;;;2.30;;
49101;SDS011;34913;47.520;19.186;2023-04-19T09:20:02;4.88;;;2.10;;
49101;SDS011;34913;47.520;19.186;2023-04-19T09:22:28;2.55;;;1.90;;
49101;SDS011;34913;47.520;19.186;2023-04-19T09:24:54;4.47;;;1.92;;
49101;SDS011;34913;47.520;19.186;2023-04-19T09:27:41;5.90;;;2.00;;
49101;SDS011;34913;47.520;19.186;2023-04-19T09:30:06;3.88;;;2.00;;
49101;SDS011;34913;47.520;19.186;2023-04-19T09:32:45;3.50;;;2.03;;
49101;SDS011;34913;47.520;19.186;2023-04-19T09:35:11;4.20;;;2.20;;
49101;SDS011;34913;47.520;19.186;2023-04-19T09:37:37;2.88;;;1.90;;
49101;SDS011;34913;47.520;19.186;2023-04-19T09:40:21;4.43;;;2.25;;
49101;SDS011;34913;47.520;19.186;2023-04-19T09:42:48;2.38;;;1.75;;
49101;SDS011;34913;47.520;19.186;2023-04-19T09:45:14;3.60;;;1.92;;
49101;SDS011;34913;47.520;19.186;2023-04-19T09:47:39;4.05;;;2.10;;
49101;SDS011;34913;47.520;19.186;2023-04-19T09:50:05;2.33;;;1.70;;
49101;SDS011;34913;47.520;19.186;2023-04-19T09:52:35;3.80;;;2.00;;
49101;SDS011;34913;47.520;19.186;2023-04-19T09:55:01;4.80;;;2.22;;
49101;SDS011;34913;47.520;19.186;2023-04-19T09:57:29;2.63;;;2.10;;
49101;SDS011;34913;47.520;19.186;2023-04-19T09:59:55;2.75;;;2.10;;
49101;SDS011;34913;47.520;19.186;2023-04-19T10:02:22;3.05;;;2.30;;
49101;SDS011;34913;47.520;19.186;2023-04-19T10:04:50;2.30;;;1.80;;
49101;SDS011;34913;47.520;19.186;2023-04-19T10:07:16;3.97;;;2.15;;
49101;SDS011;34913;47.520;19.186;2023-04-19T10:09:42;4.20;;;2.30;;
49101;SDS011;34913;47.520;19.186;2023-04-19T10:12:10;2.80;;;2.40;;
49101;SDS011;34913;47.520;19.186;2023-04-19T10:14:39;2.95;;;2.05;;
49101;SDS011;34913;47.520;19.186;2023-04-19T10:17:04;3.20;;;2.33;;
49101;SDS011;34913;47.520;19.186;2023-04-19T10:19:30;3.30;;;2.40;;
49101;SDS011;34913;47.520;19.186;2023-04-19T10:22:01;8.07;;;2.42;;
49101;SDS011;34913;47.520;19.186;2023-04-19T10:24:31;3.70;;;2.50;;
49101;SDS011;34913;47.520;19.186;2023-04-19T10:32:19;4.47;;;2.25;;
49101;SDS011;34913;47.520;19.186;2023-04-19T10:34:45;5.70;;;2.60;;
49101;SDS011;34913;47.520;19.186;2023-04-19T10:37:14;5.18;;;2.28;;
49101;SDS011;34913;47.520;19.186;2023-04-19T10:39:40;3.22;;;2.63;;
49101;SDS011;34913;47.520;19.186;2023-04-19T10:42:07;5.05;;;2.58;;
49101;SDS011;34913;47.520;19.186;2023-04-19T10:44:33;3.92;;;2.72;;
49101;SDS011;34913;47.520;19.186;2023-04-19T10:46:58;3.55;;;2.85;;
49101;SDS011;34913;47.520;19.186;2023-04-19T10:49:24;3.50;;;3.10;;
49101;SDS011;34913;47.520;19.186;2023-04-19T10:51:52;3.45;;;2.80;;
49101;SDS011;34913;47.520;19.186;2023-04-19T10:57:19;4.30;;;3.10;;
49101;SDS011;34913;47.520;19.186;2023-04-19T10:59:45;4.97;;;3.20;;
49101;SDS011;34913;47.520;19.186;2023-04-19T11:02:43;7.00;;;4.10;;
49101;SDS011;34913;47.520;19.186;2023-04-19T11:05:09;5.97;;;4.20;;
49101;SDS011;34913;47.520;19.186;2023-04-19T11:07:37;6.75;;;4.45;;
49101;SDS011;34913;47.520;19.186;2023-04-19T11:10:06;6.93;;;4.40;;
49101;SDS011;34913;47.520;19.186;2023-04-19T11:12:32;8.05;;;4.72;;
49101;SDS011;34913;47.520;19.186;2023-04-19T11:14:58;5.72;;;4.03;;
49101;SDS011;34913;47.520;19.186;2023-04-19T11:17:29;4.63;;;4.10;;
49101;SDS011;34913;47.520;19.186;2023-04-19T11:19:59;5.05;;;3.88;;
49101;SDS011;34913;47.520;19.186;2023-04-19T11:22:44;6.57;;;4.28;;
49101;SDS011;34913;47.520;19.186;2023-04-19T11:27:44;7.60;;;4.68;;
49101;SDS011;34913;47.520;19.186;2023-04-19T11:30:14;6.25;;;4.30;;
49101;SDS011;34913;47.520;19.186;2023-04-19T11:32:50;5.28;;;4.35;;
49101;SDS011;34913;47.520;19.186;2023-04-19T11:35:18;6.60;;;4.00;;
49101;SDS011;34913;47.520;19.186;2023-04-19T11:37:44;6.97;;;4.60;;
49101;SDS011;34913;47.520;19.186;2023-04-19T11:40:13;6.00;;;4.20;;
49101;SDS011;34913;47.520;19.186;2023-04-19T11:42:40;6.20;;;4.10;;
49101;SDS011;34913;47.520;19.186;2023-04-19T11:45:06;5.55;;;3.95;;
49101;SDS011;34913;47.520;19.186;2023-04-19T11:47:34;3.90;;;3.47;;
49101;SDS011;34913;47.520;19.186;2023-04-19T11:52:59;6.28;;;4.13;;
49101;SDS011;34913;47.520;19.186;2023-04-19T11:55:37;5.68;;;3.78;;
49101;SDS011;34913;47.520;19.186;2023-04-19T11:58:06;7.22;;;4.43;;
49101;SDS011;34913;47.520;19.186;2023-04-19T12:00:34;5.05;;;3.92;;
49101;SDS011;34913;47.520;19.186;2023-04-19T12:03:00;6.45;;;3.90;;
49101;SDS011;34913;47.520;19.186;2023-04-19T12:05:26;4.38;;;3.60;;
49101;SDS011;34913;47.520;19.186;2023-04-19T12:10:30;10.88;;;5.22;;
49101;SDS011;34913;47.520;19.186;2023-04-19T12:12:56;6.07;;;5.28;;
49101;SDS011;34913;47.520;19.186;2023-04-19T12:15:22;6.32;;;5.07;;
49101;SDS011;34913;47.520;19.186;2023-04-19T12:17:57;7.25;;;4.95;;
49101;SDS011;34913;47.520;19.186;2023-04-19T12:20:28;6.88;;;5.10;;
49101;SDS011;34913;47.520;19.186;2023-04-19T12:22:53;7.85;;;4.82;;
49101;SDS011;34913;47.520;19.186;2023-04-19T12:25:19;7.90;;;5.00;;
49101;SDS011;34913;47.520;19.186;2023-04-19T12:27:44;8.20;;;4.80;;
49101;SDS011;34913;47.520;19.186;2023-04-19T12:30:10;7.93;;;5.05;;
49101;SDS011;34913;47.520;19.186;2023-04-19T12:32:35;5.80;;;4.93;;
49101;SDS011;34913;47.520;19.186;2023-04-19T12:35:01;7.45;;;4.90;;
49101;SDS011;34913;47.520;19.186;2023-04-19T12:37:27;4.55;;;4.07;;
49101;SDS011;34913;47.520;19.186;2023-04-19T12:39:52;5.80;;;4.63;;
49101;SDS011;34913;47.520;19.186;2023-04-19T12:42:18;8.98;;;5.47;;
49101;SDS011;34913;47.520;19.186;2023-04-19T12:44:43;6.15;;;4.78;;
49101;SDS011;34913;47.520;19.186;2023-04-19T12:47:08;6.35;;;5.28;;
49101;SDS011;34913;47.520;19.186;2023-04-19T12:49:34;8.68;;;6.07;;
49101;SDS011;34913;47.520;19.186;2023-04-19T12:51:59;7.95;;;6.28;;
49101;SDS011;34913;47.520;19.186;2023-04-19T12:54:25;8.05;;;6.20;;
49101;SDS011;34913;47.520;19.186;2023-04-19T12:56:50;8.13;;;6.03;;
49101;SDS011;34913;47.520;19.186;2023-04-19T12:59:16;7.72;;;6.13;;
49101;SDS011;34913;47.520;19.186;2023-04-19T13:01:42;6.72;;;5.88;;
49101;SDS011;34913;47.520;19.186;2023-04-19T13:04:07;7.03;;;6.20;;
49101;SDS011;34913;47.520;19.186;2023-04-19T13:06:35;7.28;;;5.82;;
49101;SDS011;34913;47.520;19.186;2023-04-19T13:09:01;10.40;;;6.72;;
49101;SDS011;34913;47.520;19.186;2023-04-19T13:11:26;10.05;;;6.43;;
49101;SDS011;34913;47.520;19.186;2023-04-19T13:13:51;8.32;;;6.50;;
49101;SDS011;34913;47.520;19.186;2023-04-19T13:16:17;6.85;;;5.95;;
49101;SDS011;34913;47.520;19.186;2023-04-19T13:18:43;9.70;;;6.63;;
49101;SDS011;34913;47.520;19.186;2023-04-19T13:21:08;9.48;;;7.25;;
49101;SDS011;34913;47.520;19.186;2023-04-19T13:23:34;8.18;;;6.28;;
49101;SDS011;34913;47.520;19.186;2023-04-19T13:25:59;7.05;;;5.68;;
49101;SDS011;34913;47.520;19.186;2023-04-19T13:28:25;10.43;;;5.80;;
49101;SDS011;34913;47.520;19.186;2023-04-19T13:30:50;7.25;;;5.70;;
49101;SDS011;34913;47.520;19.186;2023-04-19T13:33:16;7.47;;;5.35;;
49101;SDS011;34913;47.520;19.186;2023-04-19T13:35:41;6.60;;;5.47;;
49101;SDS011;34913;47.520;19.186;2023-04-19T13:38:08;6.40;;;5.65;;
49101;SDS011;34913;47.520;19.186;2023-04-19T13:40:34;7.45;;;5.47;;
49101;SDS011;34913;47.520;19.186;2023-04-19T13:42:59;7.93;;;5.38;;
49101;SDS011;34913;47.520;19.186;2023-04-19T13:45:25;6.47;;;5.25;;
49101;SDS011;34913;47.520;19.186;2023-04-19T13:47:50;6.03;;;5.32;;
49101;SDS011;34913;47.520;19.186;2023-04-19T13:50:16;8.57;;;5.68;;
49101;SDS011;34913;47.520;19.186;2023-04-19T13:52:41;7.28;;;5.20;;
49101;SDS011;34913;47.520;19.186;2023-04-19T13:55:07;5.75;;;5.15;;
49101;SDS011;34913;47.520;19.186;2023-04-19T13:57:33;5.82;;;4.80;;
49101;SDS011;34913;47.520;19.186;2023-04-19T13:59:58;6.72;;;5.47;;
49101;SDS011;34913;47.520;19.186;2023-04-19T14:02:23;7.25;;;5.80;;
49101;SDS011;34913;47.520;19.186;2023-04-19T14:04:49;6.28;;;5.57;;
49101;SDS011;34913;47.520;19.186;2023-04-19T14:07:15;9.00;;;5.80;;
49101;SDS011;34913;47.520;19.186;2023-04-19T14:09:40;7.75;;;4.72;;
49101;SDS011;34913;47.520;19.186;2023-04-19T14:12:06;9.23;;;7.85;;
49101;SDS011;34913;47.520;19.186;2023-04-19T14:14:33;8.98;;;7.53;;
49101;SDS011;34913;47.520;19.186;2023-04-19T14:16:58;10.30;;;8.60;;
49101;SDS011;34913;47.520;19.186;2023-04-19T14:19:24;14.13;;;9.63;;
49101;SDS011;34913;47.520;19.186;2023-04-19T14:21:49;8.15;;;7.22;;
49101;SDS011;34913;47.520;19.186;2023-04-19T14:24:14;10.77;;;8.00;;
49101;SDS011;34913;47.520;19.186;2023-04-19T14:26:40;12.95;;;8.90;;
49101;SDS011;34913;47.520;19.186;2023-04-19T14:29:05;11.50;;;8.50;;
49101;SDS011;34913;47.520;19.186;2023-04-19T14:31:31;10.40;;;8.63;;
49101;SDS011;34913;47.520;19.186;2023-04-19T14:33:56;10.25;;;8.40;;
49101;SDS011;34913;47.520;19.186;2023-04-19T14:36:23;15.30;;;8.85;;
49101;SDS011;34913;47.520;19.186;2023-04-19T14:38:50;12.55;;;8.88;;
49101;SDS011;34913;47.520;19.186;2023-04-19T14:41:15;12.25;;;8.65;;
49101;SDS011;34913;47.520;19.186;2023-04-19T14:43:41;10.25;;;8.10;;
49101;SDS011;34913;47.520;19.186;2023-04-19T14:46:06;9.68;;;7.60;;
49101;SDS011;34913;47.520;19.186;2023-04-19T14:48:33;13.48;;;8.43;;